الصفحة الرئيسية
METAR-TAF:

METAR-TAF

مطار :

نالتشيك, روسيا

دائرة عرض: 43-30-46N, خط طول: 043-38-12E, ارتفاع: 445 متر

مراقبة الطقس الحالي

تاريخ ووقت الإصدار 48 دقيقة قبل الساعة 00:00UTC
ريح 6 عقدة من الغرب/الجنوب الغربي
درجة الحرارة 18°درجة مئوية
الرطوبة 56%
ضغط 1010 hPa
الرؤية 10 كم أو أكثر

METAR: URMN 140000Z 24003MPS 9999 NSC 18/09 Q1010 R24/////// NOSIG RMK QFE721

زمن: 04:48 (00:48 UTC)

توقعات

تاريخ ووقت الإصدار 1ساعة و 48 دقيقة قبل الساعة 23:00UTC
التوقعات صالحة من14 الساعة 00 UTC إلى 14 الساعة 09 UTC
ريح 6 عقدة من الغرب/الجنوب الغربي تتزايد حتى 19 عقدة
الرؤية 10 كم أو أكثر
غيوم مفككة على ارتفاع 2000 قدم

TAF: URMN 132300Z 1400/1409 24003G10MPS 9999 BKN020

أرصاد الطقس والتوقعات من أكثر من 4000 مطار (تقارير الطقس للمطار METAR والتنبؤ بالطقس بالمطارTAF).

المحطات المتاحة هي النقط الصفراء والحمراء على الخريطة.

حرك المؤشر فوق النقطة لمعرفة اسم المحطة.

ثم انقر لمعرفة أرصاد وتوقعات الطقس.

لتغيير الخارطة: اضغط على الأزرار الخضراء مع رمز الصليب الأسود للتكبير. على الزر الأخضر مع شرطة للتصغير، أو على الأسهم الخضراء للخرائط المجاورة.


METAR-TAF: